Portland — WDG2201 — position and weather

sailwx.info

Track history (hours):
 
Tides and Currents Weather Stations Pressure Air Temp Water Temp Dewpoint Dewpoint Depression Visibility Wind Speed Wind Dir Waves Ship Positions

Portland

Owner: Shaver Transportation Company, Portland, OR. More information available from US FCC via Universal Licensing System and Coast Guard Vessel Documentation Center.

Last reported at 2014-Oct-21 00:33 UTC. Time now 2014-Oct-21 13:35 UTC.
Position N 45°39' W 122°45'.

Length 27 m; draft 4 m.

Type: Towing. MMSI: 367315814.

Date/timePositionNaut miles runAvg speedWind from/ knotsBaromVisibWave heightAir tempDewpointWater temp
2014-Oct-21 00:33N 45°39' W 122°45'3 2.5
2014-Oct-20 23:33N 45°38' W 122°42'1 0.1
2014-Oct-20 15:33N 45°38' W 122°42'2 0.2
2014-Oct-20 03:32N 45°39' W 122°45'0 0.0
2014-Oct-20 02:33N 45°39' W 122°45'0 0.0
2014-Oct-20 01:33N 45°39' W 122°45'0 0.0
2014-Oct-20 00:33N 45°39' W 122°45'0 0.0
2014-Oct-19 23:33N 45°39' W 122°45'0 0.0
2014-Oct-19 22:32N 45°39' W 122°45'0 0.0
2014-Oct-19 21:33N 45°39' W 122°45'0 0.5
2014-Oct-19 20:33N 45°39' W 122°45'0 0.5
2014-Oct-19 19:33N 45°39' W 122°45'0 0.0
2014-Oct-19 18:33N 45°39' W 122°45'0 0.0
2014-Oct-19 17:33N 45°39' W 122°45'1 1.1
2014-Oct-19 16:31N 45°38' W 122°47'1 1.1
2014-Oct-19 15:29N 45°39' W 122°45'0 0.0
2014-Oct-19 14:29N 45°39' W 122°45'0 0.0
2014-Oct-19 13:29N 45°39' W 122°45'0 0.0
2014-Oct-19 12:29N 45°39' W 122°45'0 0.0
2014-Oct-19 11:29N 45°39' W 122°45'0 0.0
2014-Oct-19 10:29N 45°39' W 122°45'2 2.6
2014-Oct-19 09:33N 45°38' W 122°42'4 3.9
2014-Oct-19 08:33N 45°37' W 122°47'4 0.1
2014-Oct-18 02:30N 45°38' W 122°42'1 0.0
2014-Oct-17 06:08N 45°38' W 122°43'0 0.1
2014-Oct-17 05:30N 45°38' W 122°43'1 0.1
2014-Oct-16 08:28N 45°38' W 122°42'1 0.0
2014-Oct-14 07:07N 45°38' W 122°43'1 1.7
2014-Oct-14 06:33N 45°38' W 122°42'1 0.0
2014-Oct-12 07:27N 45°38' W 122°43'1 0.6
2014-Oct-12 06:27N 45°38' W 122°42'1 0.3
2014-Oct-12 03:23N 45°38' W 122°43'1 1.3
2014-Oct-12 02:33N 45°38' W 122°42'1 0.7
2014-Oct-12 01:29N 45°38' W 122°43'  
Track history (hours):
 
Tides and Currents Weather Stations Pressure Air Temp Water Temp Dewpoint Dewpoint Depression Visibility Wind Speed Wind Dir Waves Ship Positions

Portland

Owner: Shaver Transportation Company, Portland, OR. More information available from US FCC via Universal Licensing System and Coast Guard Vessel Documentation Center.

Last reported at 2014-Oct-21 00:33 UTC. Time now 2014-Oct-21 13:35 UTC.
Position N 45°39' W 122°45'.

Length 27 m; draft 4 m.

Type: Towing. MMSI: 367315814.

Date/timePositionNaut miles runAvg speedWind from/ knotsBaromVisibWave heightAir tempDewpointWater temp
2014-Oct-21 00:33N 45°39' W 122°45'3 2.5
2014-Oct-20 23:33N 45°38' W 122°42'1 0.1
2014-Oct-20 15:33N 45°38' W 122°42'2 0.2
2014-Oct-20 03:32N 45°39' W 122°45'0 0.0
2014-Oct-20 02:33N 45°39' W 122°45'0 0.0
2014-Oct-20 01:33N 45°39' W 122°45'0 0.0
2014-Oct-20 00:33N 45°39' W 122°45'0 0.0
2014-Oct-19 23:33N 45°39' W 122°45'0 0.0
2014-Oct-19 22:32N 45°39' W 122°45'0 0.0
2014-Oct-19 21:33N 45°39' W 122°45'0 0.5
2014-Oct-19 20:33N 45°39' W 122°45'0 0.5
2014-Oct-19 19:33N 45°39' W 122°45'0 0.0
2014-Oct-19 18:33N 45°39' W 122°45'0 0.0
2014-Oct-19 17:33N 45°39' W 122°45'1 1.1
2014-Oct-19 16:31N 45°38' W 122°47'1 1.1
2014-Oct-19 15:29N 45°39' W 122°45'0 0.0
2014-Oct-19 14:29N 45°39' W 122°45'0 0.0
2014-Oct-19 13:29N 45°39' W 122°45'0 0.0
2014-Oct-19 12:29N 45°39' W 122°45'0 0.0
2014-Oct-19 11:29N 45°39' W 122°45'0 0.0
2014-Oct-19 10:29N 45°39' W 122°45'2 2.6
2014-Oct-19 09:33N 45°38' W 122°42'4 3.9
2014-Oct-19 08:33N 45°37' W 122°47'4 0.1
2014-Oct-18 02:30N 45°38' W 122°42'1 0.0
2014-Oct-17 06:08N 45°38' W 122°43'0 0.1
2014-Oct-17 05:30N 45°38' W 122°43'1 0.1
2014-Oct-16 08:28N 45°38' W 122°42'1 0.0
2014-Oct-14 07:07N 45°38' W 122°43'1 1.7
2014-Oct-14 06:33N 45°38' W 122°42'1 0.0
2014-Oct-12 07:27N 45°38' W 122°43'1 0.6
2014-Oct-12 06:27N 45°38' W 122°42'1 0.3
2014-Oct-12 03:23N 45°38' W 122°43'1 1.3
2014-Oct-12 02:33N 45°38' W 122°42'1 0.7
2014-Oct-12 01:29N 45°38' W 122°43'  

Dump ship's entire track history